createdAt,value
2019-04-25T00:01:21.334Z,55.46
2019-04-25T00:04:27.724Z,56.60
2019-04-25T00:07:34.516Z,58.48
2019-04-25T00:10:43.075Z,56.94
2019-04-25T00:13:51.596Z,58.44
2019-04-25T00:16:58.116Z,57.60
2019-04-25T00:20:06.619Z,57.77
2019-04-25T00:23:15.853Z,58.58
2019-04-25T00:26:28.738Z,57.44
2019-04-25T00:29:35.124Z,57.55
2019-04-25T00:32:42.958Z,57.84
2019-04-25T00:35:51.347Z,59.63
2019-04-25T00:38:58.338Z,57.50
2019-04-25T00:42:04.906Z,57.40
2019-04-25T00:45:11.923Z,57.39
2019-04-25T00:48:19.442Z,58.05
2019-04-25T00:51:25.874Z,56.95
2019-04-25T00:54:32.235Z,55.63
2019-04-25T00:57:39.890Z,57.48
2019-04-25T01:01:18.498Z,57.45
2019-04-25T01:04:25.529Z,58.11
2019-04-25T01:07:32.391Z,58.77
2019-04-25T01:10:41.609Z,58.38
2019-04-25T01:13:49.266Z,56.87
2019-04-25T01:16:56.127Z,56.89
2019-04-25T01:20:04.096Z,56.40
2019-04-25T01:23:10.767Z,59.06
2019-04-25T01:26:17.156Z,57.71
2019-04-25T01:29:23.758Z,61.30
2019-04-25T01:32:35.325Z,60.36
2019-04-25T01:36:13.382Z,58.78
2019-04-25T01:39:39.743Z,57.70
2019-04-25T01:43:07.912Z,61.75
2019-04-25T01:46:14.846Z,60.43
2019-04-25T01:49:21.736Z,61.84
2019-04-25T01:52:29.145Z,61.72
2019-04-25T01:55:35.808Z,60.11
2019-04-25T01:58:43.816Z,60.90
2019-04-25T02:01:51.047Z,62.65
2019-04-25T02:04:59.168Z,63.96
2019-04-25T02:08:06.974Z,62.67
2019-04-25T02:11:21.324Z,61.68
2019-04-25T02:14:29.078Z,60.66
2019-04-25T02:17:35.460Z,60.66
2019-04-25T02:20:43.498Z,62.30
2019-04-25T02:23:51.622Z,61.64
2019-04-25T02:26:58.812Z,62.49
2019-04-25T02:30:06.970Z,63.73
2019-04-25T02:33:14.383Z,61.55
2019-04-25T02:36:20.702Z,63.74
2019-04-25T02:39:28.078Z,61.91
2019-04-25T02:42:34.481Z,63.09
2019-04-25T02:46:01.772Z,61.70
2019-04-25T02:49:39.911Z,63.97
2019-04-25T02:52:51.400Z,62.14
2019-04-25T02:55:57.839Z,63.58
2019-04-25T02:59:06.993Z,62.81
2019-04-25T03:02:12.453Z,63.90
2019-04-25T03:05:19.144Z,61.10
2019-04-25T03:08:25.604Z,62.28
2019-04-25T03:11:34.703Z,62.47
2019-04-25T03:14:41.074Z,63.24
2019-04-25T03:17:47.541Z,62.79
2019-04-25T03:21:05.184Z,64.89
2019-04-25T03:24:13.097Z,64.76
2019-04-25T03:27:18.332Z,61.39
2019-04-25T03:30:25.694Z,61.59
2019-04-25T03:33:32.032Z,64.00
2019-04-25T03:36:38.412Z,64.11
2019-04-25T03:39:44.774Z,64.11
2019-04-25T03:42:51.278Z,61.81
2019-04-25T03:45:57.733Z,63.62
2019-04-25T03:49:05.307Z,65.11
2019-04-25T03:52:14.169Z,63.84
2019-04-25T03:55:20.952Z,63.86
2019-04-25T03:58:27.309Z,62.03
2019-04-25T04:01:34.284Z,63.68
2019-04-25T04:04:40.756Z,65.06
2019-04-25T04:07:47.124Z,65.26
2019-04-25T04:10:54.369Z,63.54
2019-04-25T04:14:03.917Z,62.54
2019-04-25T04:17:36.005Z,61.83
2019-04-25T04:20:53.481Z,64.62
2019-04-25T04:24:09.668Z,64.08
2019-04-25T04:27:18.409Z,65.46
2019-04-25T04:30:24.778Z,65.67
2019-04-25T04:33:34.353Z,65.60
2019-04-25T04:36:39.886Z,63.76
2019-04-25T04:39:46.277Z,64.32
2019-04-25T04:42:53.332Z,62.96
2019-04-25T04:45:59.969Z,63.81
2019-04-25T04:49:08.785Z,62.90
2019-04-25T04:52:17.032Z,63.46
2019-04-25T04:55:23.687Z,61.53
2019-04-25T04:58:30.156Z,62.59
2019-04-25T05:01:38.962Z,63.22
2019-04-25T05:05:08.519Z,61.87
2019-04-25T05:08:19.986Z,60.85
2019-04-25T05:11:26.407Z,60.83
2019-04-25T05:14:39.157Z,61.12
2019-04-25T05:17:48.246Z,61.82
2019-04-25T05:21:13.257Z,60.25
2019-04-25T05:24:24.999Z,59.99
2019-04-25T05:27:57.676Z,59.87
2019-04-25T05:31:16.804Z,59.91
2019-04-25T05:34:41.691Z,59.50
2019-04-25T05:37:59.595Z,58.84
2019-04-25T05:41:15.804Z,58.52
2019-04-25T05:44:27.350Z,58.48
2019-04-25T05:47:34.057Z,57.86
2019-04-25T05:50:40.373Z,58.05
2019-04-25T05:53:47.642Z,57.93
2019-04-25T05:56:54.031Z,57.53
2019-04-25T06:00:00.470Z,57.72
2019-04-25T06:03:07.250Z,57.02
2019-04-25T06:06:13.733Z,56.48
2019-04-25T06:09:45.522Z,56.57
2019-04-25T06:13:13.976Z,56.21
2019-04-25T06:16:29.564Z,56.41
2019-04-25T06:19:43.557Z,55.91
2019-04-25T06:22:56.748Z,55.87
2019-04-25T06:26:17.144Z,55.58
2019-04-25T06:29:11.356Z,55.53
2019-04-25T06:32:17.683Z,55.33
2019-04-25T06:35:25.142Z,55.21
2019-04-25T06:38:33.462Z,55.37
2019-04-25T06:41:40.094Z,54.67
2019-04-25T06:45:05.431Z,55.08
2019-04-25T06:48:35.207Z,54.44
2019-04-25T06:51:54.785Z,54.03
2019-04-25T06:55:01.156Z,53.43
2019-04-25T06:58:11.690Z,53.29
2019-04-25T07:01:15.697Z,52.66
2019-04-25T07:04:22.776Z,52.45
2019-04-25T07:07:31.080Z,51.97
2019-04-25T07:10:37.622Z,51.49
2019-04-25T07:13:44.228Z,50.54
2019-04-25T07:16:52.849Z,49.89
2019-04-25T07:20:00.773Z,50.04
2019-04-25T07:23:07.161Z,49.95
2019-04-25T07:26:21.375Z,49.60
2019-04-25T07:29:53.941Z,49.67
2019-04-25T07:33:27.284Z,49.56
2019-04-25T07:36:34.785Z,48.95
2019-04-25T07:39:41.785Z,47.69
2019-04-25T07:42:48.073Z,48.07
2019-04-25T07:45:54.519Z,47.16
2019-04-25T07:49:00.888Z,47.65
2019-04-25T07:52:07.321Z,46.70
2019-04-25T07:55:13.863Z,45.04
2019-04-25T07:58:20.432Z,44.71
2019-04-25T08:01:27.998Z,43.49
2019-04-25T08:04:36.170Z,44.57
2019-04-25T08:07:43.761Z,43.92
2019-04-25T08:10:59.134Z,42.31
2019-04-25T08:14:11.561Z,42.19
2019-04-25T08:17:39.615Z,40.87
2019-04-25T08:20:47.152Z,41.40
2019-04-25T08:23:53.975Z,41.10
2019-04-25T08:27:00.702Z,40.77
2019-04-25T08:30:08.049Z,38.90
2019-04-25T08:33:14.498Z,40.15
2019-04-25T08:36:21.112Z,38.69
2019-04-25T08:39:27.626Z,38.87
2019-04-25T08:42:35.825Z,38.70
2019-04-25T08:45:44.131Z,37.29
2019-04-25T08:49:21.811Z,37.80
2019-04-25T08:52:28.274Z,37.37
2019-04-25T08:55:54.046Z,36.75
2019-04-25T08:59:34.039Z,35.50
2019-04-25T09:02:58.884Z,35.50
2019-04-25T09:06:05.917Z,36.15
2019-04-25T09:09:13.687Z,35.07
2019-04-25T09:12:20.240Z,35.10
2019-04-25T09:15:27.026Z,35.53
2019-04-25T09:18:36.051Z,35.29
2019-04-25T09:21:48.033Z,34.13
2019-04-25T09:24:51.157Z,33.26
2019-04-25T09:27:57.703Z,34.35
2019-04-25T09:31:04.291Z,33.74
2019-04-25T09:34:10.868Z,32.17
2019-04-25T09:37:17.249Z,32.87
2019-04-25T09:40:24.098Z,32.83
2019-04-25T09:43:30.748Z,31.33
2019-04-25T09:46:37.799Z,32.97
2019-04-25T09:49:46.302Z,31.15
2019-04-25T09:52:53.927Z,31.03
2019-04-25T09:56:14.068Z,32.38
2019-04-25T09:59:27.962Z,32.97
2019-04-25T10:02:30.969Z,31.88
2019-04-25T10:05:38.428Z,31.88
2019-04-25T10:08:45.414Z,32.23
2019-04-25T10:11:54.504Z,33.31
2019-04-25T10:15:31.307Z,33.26
2019-04-25T10:18:39.205Z,31.99
2019-04-25T10:21:45.722Z,32.00
2019-04-25T10:25:00.435Z,32.75
2019-04-25T10:28:00.382Z,31.73
2019-04-25T10:31:07.192Z,30.29
2019-04-25T10:34:14.132Z,29.77
2019-04-25T10:37:20.889Z,30.01
2019-04-25T10:40:27.952Z,30.57
2019-04-25T10:43:34.613Z,31.35
2019-04-25T10:46:42.168Z,31.45
2019-04-25T10:49:49.498Z,30.24
2019-04-25T10:52:55.916Z,32.47
2019-04-25T10:56:05.509Z,32.13
2019-04-25T10:59:10.671Z,32.90
2019-04-25T11:02:17.315Z,34.91
2019-04-25T11:05:24.014Z,37.14
2019-04-25T11:08:30.705Z,36.55
2019-04-25T11:11:37.304Z,40.29
2019-04-25T11:14:44.324Z,40.70
2019-04-25T11:17:51.148Z,39.42
2019-04-25T11:20:59.231Z,39.34
2019-04-25T11:24:05.871Z,40.12
2019-04-25T11:27:13.517Z,41.06
2019-04-25T11:30:22.747Z,40.95
2019-04-25T11:33:29.294Z,42.71
2019-04-25T11:36:35.841Z,41.98
2019-04-25T11:39:49.285Z,41.98
2019-04-25T11:42:55.922Z,43.42
2019-04-25T11:46:04.581Z,45.40
2019-04-25T11:49:10.705Z,45.06
2019-04-25T11:52:27.324Z,45.96
2019-04-25T11:55:25.968Z,46.25
2019-04-25T11:58:32.456Z,46.30
2019-04-25T12:01:39.661Z,45.96
2019-04-25T12:04:47.692Z,48.19
2019-04-25T12:07:54.182Z,47.40
2019-04-25T12:11:00.692Z,47.69
2019-04-25T12:14:07.370Z,46.71
2019-04-25T12:17:13.745Z,46.32
2019-04-25T12:20:20.185Z,46.32
2019-04-25T12:23:27.034Z,45.81
2019-04-25T12:26:34.449Z,45.46
2019-04-25T12:29:40.815Z,45.81
2019-04-25T12:32:47.927Z,46.24
2019-04-25T12:35:55.376Z,46.59
2019-04-25T12:39:03.376Z,47.02
2019-04-25T12:42:11.678Z,47.01
2019-04-25T12:45:25.268Z,47.01
2019-04-25T12:48:31.891Z,47.96
2019-04-25T12:51:38.363Z,48.46
2019-04-25T12:54:44.687Z,48.06
2019-04-25T12:57:51.515Z,48.53
2019-04-25T13:01:00.095Z,47.92
2019-04-25T13:04:07.072Z,47.36
2019-04-25T13:07:13.767Z,46.89
2019-04-25T13:10:21.210Z,46.80
2019-04-25T13:13:27.741Z,47.20
2019-04-25T13:16:34.306Z,47.57
2019-04-25T13:19:41.107Z,47.27
2019-04-25T13:22:47.494Z,47.01
2019-04-25T13:25:55.836Z,46.69
2019-04-25T13:29:23.049Z,47.39
2019-04-25T13:33:00.377Z,46.66
2019-04-25T13:36:12.257Z,46.51
2019-04-25T13:39:20.003Z,46.98
2019-04-25T13:42:26.378Z,47.02
2019-04-25T13:45:32.770Z,48.06
2019-04-25T13:48:40.242Z,48.57
2019-04-25T13:51:46.766Z,47.45
2019-04-25T13:54:54.236Z,46.66
2019-04-25T13:58:00.676Z,46.97
2019-04-25T14:01:13.103Z,46.44
2019-04-25T14:04:18.791Z,47.41
2019-04-25T14:07:25.544Z,46.86
2019-04-25T14:10:32.783Z,46.95
2019-04-25T14:13:43.588Z,46.52
2019-04-25T14:17:07.022Z,46.52
2019-04-25T14:20:18.998Z,46.65
2019-04-25T14:23:25.768Z,46.02
2019-04-25T14:26:33.171Z,46.34
2019-04-25T14:29:39.531Z,48.04
2019-04-25T14:32:45.964Z,47.09
2019-04-25T14:35:53.477Z,47.83
2019-04-25T14:39:01.312Z,48.48
2019-04-25T14:42:09.531Z,49.22
2019-04-25T14:45:17.884Z,49.33
2019-04-25T14:48:24.794Z,49.25
2019-04-25T14:51:31.102Z,49.75
2019-04-25T14:54:44.602Z,52.55
2019-04-25T14:57:51.162Z,52.55
2019-04-25T15:00:57.719Z,51.52
2019-04-25T15:04:04.563Z,51.69
2019-04-25T15:07:11.490Z,52.30
2019-04-25T15:10:18.631Z,52.72
2019-04-25T15:13:25.780Z,52.46
2019-04-25T15:16:33.425Z,53.42
2019-04-25T15:19:40.042Z,51.86
2019-04-25T15:22:46.375Z,51.47
2019-04-25T15:25:52.788Z,52.48
2019-04-25T15:28:59.690Z,51.76
2019-04-25T15:32:07.765Z,52.02
2019-04-25T15:35:15.962Z,51.66
2019-04-25T15:38:29.039Z,51.79
2019-04-25T15:41:54.672Z,52.26
2019-04-25T15:45:19.903Z,52.03
2019-04-25T15:48:26.455Z,53.58
2019-04-25T15:51:33.093Z,53.41
2019-04-25T15:54:39.573Z,52.52
2019-04-25T15:57:45.912Z,53.56
2019-04-25T16:00:52.380Z,54.15
2019-04-25T16:03:58.817Z,52.75
2019-04-25T16:07:05.522Z,52.45
2019-04-25T16:10:12.295Z,52.50
2019-04-25T16:13:19.463Z,52.09
2019-04-25T16:16:26.799Z,52.37
2019-04-25T16:19:33.268Z,51.86
2019-04-25T16:22:39.747Z,53.67
2019-04-25T16:25:46.227Z,53.15
2019-04-25T16:28:52.742Z,53.74
2019-04-25T16:32:00.561Z,52.63
2019-04-25T16:35:07.257Z,52.28
2019-04-25T16:38:13.970Z,52.09
2019-04-25T16:41:21.068Z,51.78
2019-04-25T16:44:28.678Z,51.73
2019-04-25T16:47:35.950Z,51.24
2019-04-25T16:50:42.343Z,50.96
2019-04-25T16:53:48.728Z,50.96
2019-04-25T16:56:55.110Z,51.07
2019-04-25T17:00:01.665Z,51.65
2019-04-25T17:03:09.780Z,51.19
2019-04-25T17:06:16.195Z,51.51
2019-04-25T17:09:22.513Z,51.23
2019-04-25T17:12:29.675Z,51.64
2019-04-25T17:16:02.307Z,51.34
2019-04-25T17:19:12.223Z,51.34
2019-04-25T17:22:18.863Z,51.17
2019-04-25T17:25:25.413Z,50.83
2019-04-25T17:28:33.438Z,51.46
2019-04-25T17:31:58.903Z,50.43
2019-04-25T17:35:18.315Z,51.00
2019-04-25T17:38:33.585Z,51.01
2019-04-25T17:41:41.251Z,50.63
2019-04-25T17:44:47.955Z,51.83
2019-04-25T17:47:55.070Z,50.89
2019-04-25T17:51:01.798Z,50.88
2019-04-25T17:54:09.237Z,51.44
2019-04-25T17:57:15.680Z,50.60
2019-04-25T18:00:39.702Z,50.89
2019-04-25T18:03:47.118Z,50.78
2019-04-25T18:06:54.412Z,51.04
2019-04-25T18:10:00.824Z,50.82
2019-04-25T18:13:09.573Z,50.46
2019-04-25T18:16:31.213Z,51.52
2019-04-25T18:19:55.306Z,50.98
2019-04-25T18:23:09.766Z,51.63
2019-04-25T18:26:28.215Z,51.43
2019-04-25T18:29:35.076Z,52.43
2019-04-25T18:32:50.125Z,52.72
2019-04-25T18:36:03.909Z,52.38
2019-04-25T18:39:21.222Z,52.68
2019-04-25T18:42:52.830Z,53.23
2019-04-25T18:46:04.088Z,53.15
2019-04-25T18:49:10.715Z,53.35
2019-04-25T18:52:42.920Z,53.42
2019-04-25T18:56:11.439Z,52.88
2019-04-25T18:59:38.687Z,53.32
2019-04-25T19:03:07.153Z,53.32
2019-04-25T19:06:15.763Z,54.11
2019-04-25T19:09:22.302Z,53.93
2019-04-25T19:12:28.699Z,53.85
2019-04-25T19:15:35.109Z,53.47
2019-04-25T19:18:44.418Z,53.88
2019-04-25T19:21:50.057Z,53.76
2019-04-25T19:24:56.853Z,53.39
2019-04-25T19:28:03.278Z,53.50
2019-04-25T19:31:10.983Z,54.36
2019-04-25T19:34:17.514Z,54.23
2019-04-25T19:37:25.425Z,54.38
2019-04-25T19:40:49.799Z,54.89
2019-04-25T19:44:05.527Z,54.43
2019-04-25T19:47:11.937Z,54.25
2019-04-25T19:50:18.343Z,53.61
2019-04-25T19:53:24.750Z,54.39
2019-04-25T19:56:32.970Z,54.03
2019-04-25T19:59:39.595Z,54.88
2019-04-25T20:02:54.331Z,54.36
2019-04-25T20:06:07.069Z,54.02
2019-04-25T20:09:31.875Z,53.99
2019-04-25T20:12:45.302Z,54.06
2019-04-25T20:15:52.124Z,53.82
2019-04-25T20:18:58.502Z,54.16
2019-04-25T20:22:05.033Z,54.08
2019-04-25T20:25:11.511Z,53.74
2019-04-25T20:28:17.873Z,53.82
2019-04-25T20:31:24.252Z,54.19
2019-04-25T20:34:30.716Z,54.30
2019-04-25T20:37:38.120Z,54.89
2019-04-25T20:40:45.350Z,54.60
2019-04-25T20:43:52.950Z,55.91
2019-04-25T20:46:59.370Z,55.79
2019-04-25T20:50:07.114Z,56.59
2019-04-25T20:53:13.461Z,56.22
2019-04-25T20:56:20.837Z,56.74
2019-04-25T20:59:27.511Z,56.84
2019-04-25T21:02:33.934Z,57.22
2019-04-25T21:05:41.011Z,57.65
2019-04-25T21:08:47.403Z,58.41
2019-04-25T21:11:53.893Z,59.46
2019-04-25T21:15:19.318Z,58.88
2019-04-25T21:18:35.829Z,60.30
2019-04-25T21:21:42.384Z,59.09
2019-04-25T21:24:49.491Z,58.26
2019-04-25T21:27:56.944Z,57.80
2019-04-25T21:31:04.227Z,58.21
2019-04-25T21:34:10.816Z,58.42
2019-04-25T21:37:17.676Z,58.45
2019-04-25T21:40:43.822Z,58.32
2019-04-25T21:43:54.392Z,57.77
2019-04-25T21:47:01.029Z,58.42
2019-04-25T21:50:08.062Z,59.07
2019-04-25T21:53:14.705Z,58.91
2019-04-25T21:56:21.268Z,60.51
2019-04-25T21:59:27.669Z,59.98
2019-04-25T22:02:34.224Z,60.24
2019-04-25T22:05:41.030Z,60.02
2019-04-25T22:08:47.387Z,60.58
2019-04-25T22:11:54.761Z,60.14
2019-04-25T22:15:02.056Z,60.21
2019-04-25T22:18:08.450Z,60.35
2019-04-25T22:21:14.806Z,59.97
2019-04-25T22:24:22.138Z,59.70
2019-04-25T22:27:33.472Z,59.84
2019-04-25T22:30:40.974Z,61.26
2019-04-25T22:34:03.785Z,61.40
2019-04-25T22:37:10.807Z,60.71
2019-04-25T22:40:17.703Z,61.37
2019-04-25T22:43:25.333Z,61.09
2019-04-25T22:46:32.909Z,60.61
2019-04-25T22:49:39.681Z,61.37
2019-04-25T22:52:46.312Z,60.73
2019-04-25T22:55:52.679Z,62.12
2019-04-25T22:58:59.060Z,62.12
2019-04-25T23:02:13.931Z,61.07
2019-04-25T23:05:27.539Z,60.95
2019-04-25T23:08:34.068Z,60.74
2019-04-25T23:11:40.481Z,61.65
2019-04-25T23:14:47.161Z,61.26
2019-04-25T23:17:53.773Z,61.25
2019-04-25T23:21:00.185Z,60.56
2019-04-25T23:24:07.863Z,61.78
2019-04-25T23:27:30.635Z,61.91
2019-04-25T23:30:50.170Z,61.82
2019-04-25T23:33:56.475Z,63.36
2019-04-25T23:37:03.082Z,63.47
2019-04-25T23:40:11.578Z,63.63
2019-04-25T23:43:18.042Z,63.17
2019-04-25T23:46:24.896Z,63.21
2019-04-25T23:49:31.200Z,63.60
2019-04-25T23:52:37.864Z,63.90
2019-04-25T23:55:44.328Z,65.13
2019-04-25T23:58:51.024Z,63.88
